createdAt,value
2023-02-07T00:00:14.465Z,28.68
2023-02-07T00:01:14.458Z,27.18
2023-02-07T00:02:14.489Z,28.14
2023-02-07T00:03:14.456Z,28.25
2023-02-07T00:04:14.393Z,27.71
2023-02-07T00:05:14.414Z,28.79
2023-02-07T00:06:14.387Z,28.25
2023-02-07T00:07:14.377Z,27.93
2023-02-07T00:08:14.388Z,27.61
2023-02-07T00:09:14.357Z,27.29
2023-02-07T00:10:14.343Z,27.71
2023-02-07T00:11:14.308Z,26.53
2023-02-07T00:12:14.312Z,27.39
2023-02-07T00:13:14.294Z,28.04
2023-02-07T00:14:14.268Z,28.04
2023-02-07T00:15:14.298Z,28.04
2023-02-07T00:16:14.317Z,27.82
2023-02-07T00:17:14.265Z,28.04
2023-02-07T00:18:15.173Z,28.14
2023-02-07T00:19:14.216Z,27.39
2023-02-07T00:20:14.194Z,26.64
2023-02-07T00:21:14.225Z,27.50
2023-02-07T00:22:14.547Z,27.29
2023-02-07T00:23:14.167Z,27.71
2023-02-07T00:24:14.146Z,27.50
2023-02-07T00:25:14.145Z,27.18
2023-02-07T00:26:14.127Z,27.29
2023-02-07T00:27:14.129Z,27.71
2023-02-07T00:28:14.161Z,27.61
2023-02-07T00:29:14.114Z,27.39
2023-02-07T00:30:14.098Z,27.82
2023-02-07T00:31:14.203Z,27.29
2023-02-07T00:32:14.095Z,28.14
2023-02-07T00:33:14.060Z,27.82
2023-02-07T00:34:14.084Z,27.71
2023-02-07T00:35:14.013Z,27.29
2023-02-07T00:36:14.012Z,27.93
2023-02-07T00:37:14.023Z,27.29
2023-02-07T00:38:14.088Z,27.39
2023-02-07T00:39:14.001Z,26.43
2023-02-07T00:40:13.943Z,27.61
2023-02-07T00:41:13.959Z,26.64
2023-02-07T00:42:13.945Z,26.43
2023-02-07T00:43:28.153Z,27.71
2023-02-07T00:44:14.908Z,27.29
2023-02-07T00:45:13.911Z,27.71
2023-02-07T00:46:13.922Z,27.39
2023-02-07T00:47:13.871Z,27.61
2023-02-07T00:48:13.851Z,27.71
2023-02-07T00:49:13.855Z,26.21
2023-02-07T00:50:13.850Z,27.61
2023-02-07T00:51:13.842Z,27.61
2023-02-07T00:52:13.812Z,26.21
2023-02-07T00:53:13.802Z,27.39
2023-02-07T00:54:13.792Z,26.10
2023-02-07T00:55:14.036Z,26.10
2023-02-07T00:56:13.774Z,26.43
2023-02-07T00:57:13.762Z,27.71
2023-02-07T00:58:13.730Z,26.21
2023-02-07T00:59:13.721Z,27.29
2023-02-07T01:00:13.701Z,26.53
2023-02-07T01:01:13.721Z,26.43
2023-02-07T01:02:13.944Z,26.64
2023-02-07T01:03:13.693Z,26.64
2023-02-07T01:04:13.658Z,27.29
2023-02-07T01:05:13.649Z,26.53
2023-02-07T01:06:13.633Z,26.21
2023-02-07T01:07:13.634Z,27.18
2023-02-07T01:08:13.607Z,27.18
2023-02-07T01:09:13.602Z,26.64
2023-02-07T01:10:13.584Z,26.10
2023-02-07T01:11:13.579Z,27.18
2023-02-07T01:12:13.582Z,26.43
2023-02-07T01:13:14.506Z,27.39
2023-02-07T01:14:13.543Z,27.29
2023-02-07T01:15:13.533Z,26.21
2023-02-07T01:16:13.564Z,26.00
2023-02-07T01:17:13.498Z,26.53
2023-02-07T01:18:13.514Z,26.32
2023-02-07T01:19:13.848Z,27.29
2023-02-07T01:20:13.470Z,26.53
2023-02-07T01:21:14.269Z,26.21
2023-02-07T01:22:13.437Z,26.21
2023-02-07T01:23:13.482Z,26.21
2023-02-07T01:24:13.437Z,26.53
2023-02-07T01:25:13.433Z,25.67
2023-02-07T01:26:13.392Z,26.43
2023-02-07T01:27:13.686Z,26.10
2023-02-07T01:28:13.386Z,26.53
2023-02-07T01:29:13.363Z,26.53
2023-02-07T01:30:13.358Z,26.53
2023-02-07T01:31:13.396Z,26.21
2023-02-07T01:32:13.319Z,26.21
2023-02-07T01:33:13.327Z,26.86
2023-02-07T01:34:13.298Z,25.78
2023-02-07T01:35:13.290Z,26.53
2023-02-07T01:36:13.289Z,26.43
2023-02-07T01:37:13.258Z,26.10
2023-02-07T01:38:13.518Z,25.67
2023-02-07T01:39:13.239Z,27.29
2023-02-07T01:40:13.219Z,24.92
2023-02-07T01:41:13.211Z,25.78
2023-02-07T01:42:13.187Z,25.67
2023-02-07T01:43:13.204Z,25.67
2023-02-07T01:44:13.161Z,26.43
2023-02-07T01:45:13.184Z,25.89
2023-02-07T01:46:13.152Z,25.89
2023-02-07T01:47:13.136Z,25.67
2023-02-07T01:48:13.120Z,26.00
2023-02-07T01:49:13.130Z,26.43
2023-02-07T01:50:13.088Z,26.53
2023-02-07T01:51:13.093Z,26.10
2023-02-07T01:52:13.056Z,25.67
2023-02-07T01:53:13.070Z,26.53
2023-02-07T01:54:13.036Z,26.21
2023-02-07T01:55:13.038Z,26.00
2023-02-07T01:56:22.731Z,25.89
2023-02-07T01:57:14.025Z,25.03
2023-02-07T01:58:13.018Z,24.92
2023-02-07T01:59:12.991Z,26.10
2023-02-07T02:00:14.100Z,26.00
2023-02-07T02:01:12.986Z,26.43
2023-02-07T02:02:12.998Z,25.57
2023-02-07T02:03:12.944Z,26.10
2023-02-07T02:04:12.911Z,26.43
2023-02-07T02:05:12.908Z,25.03
2023-02-07T02:06:12.897Z,26.10
2023-02-07T02:07:12.875Z,26.32
2023-02-07T02:08:12.869Z,24.92
2023-02-07T02:09:12.862Z,26.21
2023-02-07T02:10:12.857Z,25.89
2023-02-07T02:11:12.825Z,26.21
2023-02-07T02:12:12.822Z,26.10
2023-02-07T02:13:12.826Z,26.21
2023-02-07T02:14:12.807Z,25.67
2023-02-07T02:15:12.795Z,25.03
2023-02-07T02:16:12.859Z,25.67
2023-02-07T02:17:12.758Z,25.03
2023-02-07T02:18:12.762Z,24.92
2023-02-07T02:19:12.743Z,25.14
2023-02-07T02:20:12.716Z,26.10
2023-02-07T02:21:12.717Z,26.64
2023-02-07T02:22:12.708Z,26.10
2023-02-07T02:23:12.708Z,25.89
2023-02-07T02:24:12.672Z,25.78
2023-02-07T02:25:12.676Z,26.21
2023-02-07T02:26:12.638Z,25.67
2023-02-07T02:27:12.639Z,26.32
2023-02-07T02:28:12.654Z,24.92
2023-02-07T02:29:12.610Z,26.10
2023-02-07T02:30:12.595Z,26.32
2023-02-07T02:31:12.640Z,26.21
2023-02-07T02:32:12.598Z,25.14
2023-02-07T02:33:12.583Z,25.78
2023-02-07T02:34:12.562Z,24.92
2023-02-07T02:35:12.545Z,26.10
2023-02-07T02:36:12.517Z,24.92
2023-02-07T02:37:12.534Z,26.21
2023-02-07T02:38:12.522Z,24.60
2023-02-07T02:39:12.498Z,25.89
2023-02-07T02:40:12.471Z,26.32
2023-02-07T02:41:12.458Z,24.71
2023-02-07T02:42:12.447Z,24.60
2023-02-07T02:43:12.449Z,26.32
2023-02-07T02:44:12.422Z,25.89
2023-02-07T02:45:12.409Z,24.92
2023-02-07T02:46:12.425Z,26.32
2023-02-07T02:47:12.397Z,25.89
2023-02-07T02:48:12.383Z,25.24
2023-02-07T02:49:12.372Z,25.24
2023-02-07T02:50:12.350Z,26.64
2023-02-07T02:51:12.352Z,26.10
2023-02-07T02:52:12.355Z,25.03
2023-02-07T02:53:12.329Z,25.89
2023-02-07T02:54:12.302Z,26.21
2023-02-07T02:55:12.308Z,25.03
2023-02-07T02:56:12.287Z,25.03
2023-02-07T02:57:12.272Z,25.24
2023-02-07T02:58:12.269Z,24.81
2023-02-07T02:59:12.251Z,25.14
2023-02-07T03:00:12.262Z,24.92
2023-02-07T03:01:12.223Z,25.24
2023-02-07T03:02:12.221Z,26.32
2023-02-07T03:03:12.204Z,26.43
2023-02-07T03:04:12.185Z,26.32
2023-02-07T03:05:12.197Z,24.92
2023-02-07T03:06:12.171Z,25.14
2023-02-07T03:07:12.155Z,25.89
2023-02-07T03:08:12.147Z,25.89
2023-02-07T03:09:12.117Z,26.00
2023-02-07T03:10:12.107Z,26.21
2023-02-07T03:11:12.103Z,26.10
2023-02-07T03:12:12.085Z,25.89
2023-02-07T03:13:12.083Z,26.00
2023-02-07T03:14:12.064Z,25.89
2023-02-07T03:15:12.054Z,26.43
2023-02-07T03:16:12.052Z,24.71
2023-02-07T03:17:12.024Z,25.78
2023-02-07T03:18:12.025Z,25.89
2023-02-07T03:19:12.010Z,24.81
2023-02-07T03:20:11.998Z,25.89
2023-02-07T03:21:11.973Z,25.78
2023-02-07T03:22:11.957Z,26.21
2023-02-07T03:23:11.956Z,25.14
2023-02-07T03:24:11.938Z,25.67
2023-02-07T03:25:11.928Z,26.21
2023-02-07T03:26:11.905Z,25.67
2023-02-07T03:27:11.894Z,26.10
2023-02-07T03:28:11.936Z,26.53
2023-02-07T03:29:11.882Z,24.92
2023-02-07T03:30:11.862Z,25.14
2023-02-07T03:31:11.863Z,24.81
2023-02-07T03:32:11.845Z,26.00
2023-02-07T03:33:11.957Z,24.92
2023-02-07T03:34:11.806Z,26.10
2023-02-07T03:35:11.797Z,25.14
2023-02-07T03:36:11.808Z,25.78
2023-02-07T03:37:11.789Z,25.24
2023-02-07T03:38:11.761Z,25.14
2023-02-07T03:39:11.751Z,25.24
2023-02-07T03:40:11.734Z,24.71
2023-02-07T03:41:11.754Z,24.60
2023-02-07T03:42:11.702Z,24.71
2023-02-07T03:43:11.712Z,25.14
2023-02-07T03:44:11.702Z,25.89
2023-02-07T03:45:11.682Z,24.71
2023-02-07T03:46:11.696Z,26.00
2023-02-07T03:47:11.658Z,24.06
2023-02-07T03:48:11.646Z,24.71
2023-02-07T03:49:11.632Z,24.49
2023-02-07T03:50:11.603Z,25.14
2023-02-07T03:51:11.606Z,25.03
2023-02-07T03:52:11.594Z,24.60
2023-02-07T03:53:11.584Z,26.00
2023-02-07T03:54:11.572Z,25.03
2023-02-07T03:55:11.571Z,26.10
2023-02-07T03:56:11.545Z,23.85
2023-02-07T03:57:11.769Z,24.71
2023-02-07T03:58:11.516Z,25.57
2023-02-07T03:59:11.495Z,26.00
2023-02-07T04:00:11.526Z,25.89
2023-02-07T04:01:11.522Z,25.03
2023-02-07T04:02:11.494Z,23.96
2023-02-07T04:03:11.469Z,25.35
2023-02-07T04:04:11.475Z,25.03
2023-02-07T04:05:11.442Z,24.71
2023-02-07T04:06:11.407Z,24.81
2023-02-07T04:07:11.417Z,24.92
2023-02-07T04:08:11.402Z,24.92
2023-02-07T04:09:11.935Z,24.71
2023-02-07T04:10:11.380Z,25.14
2023-02-07T04:11:11.366Z,25.14
2023-02-07T04:12:11.342Z,24.81
2023-02-07T04:13:11.339Z,24.92
2023-02-07T04:14:11.329Z,25.03
2023-02-07T04:15:11.310Z,24.71
2023-02-07T04:16:11.324Z,23.96
2023-02-07T04:17:11.289Z,23.96
2023-02-07T04:18:11.278Z,24.60
2023-02-07T04:19:11.263Z,25.14
2023-02-07T04:20:11.241Z,24.06
2023-02-07T04:21:11.241Z,25.03
2023-02-07T04:22:11.260Z,23.85
2023-02-07T04:23:11.218Z,24.81
2023-02-07T04:24:11.194Z,24.49
2023-02-07T04:25:11.215Z,24.49
2023-02-07T04:26:11.169Z,24.49
2023-02-07T04:27:11.161Z,23.74
2023-02-07T04:28:11.226Z,24.92
2023-02-07T04:29:11.137Z,23.96
2023-02-07T04:30:11.121Z,24.71
2023-02-07T04:31:11.110Z,23.74
2023-02-07T04:32:11.103Z,23.74
2023-02-07T04:33:11.094Z,23.96
2023-02-07T04:34:11.327Z,24.71
2023-02-07T04:35:11.057Z,23.85
2023-02-07T04:36:11.037Z,25.35
2023-02-07T04:37:11.037Z,24.92
2023-02-07T04:38:11.035Z,24.60
2023-02-07T04:39:11.011Z,24.06
2023-02-07T04:40:10.997Z,23.96
2023-02-07T04:41:10.986Z,23.85
2023-02-07T04:42:10.965Z,24.92
2023-02-07T04:43:10.979Z,25.35
2023-02-07T04:44:10.935Z,25.14
2023-02-07T04:45:10.941Z,24.92
2023-02-07T04:46:10.937Z,24.81
2023-02-07T04:47:10.912Z,23.96
2023-02-07T04:48:10.896Z,24.92
2023-02-07T04:49:10.891Z,24.71
2023-02-07T04:50:10.865Z,23.63
2023-02-07T04:51:10.853Z,24.60
2023-02-07T04:52:10.836Z,23.96
2023-02-07T04:53:10.846Z,23.85
2023-02-07T04:54:10.818Z,24.92
2023-02-07T04:55:10.814Z,23.74
2023-02-07T04:56:10.810Z,23.74
2023-02-07T04:57:10.787Z,24.71
2023-02-07T04:58:10.780Z,24.60
2023-02-07T04:59:10.780Z,24.49
2023-02-07T05:00:10.781Z,24.17
2023-02-07T05:01:10.734Z,24.92
2023-02-07T05:02:10.721Z,25.35
2023-02-07T05:03:10.744Z,24.92
2023-02-07T05:04:10.745Z,24.71
2023-02-07T05:05:10.699Z,24.17
2023-02-07T05:06:10.671Z,24.60
2023-02-07T05:07:10.687Z,24.71
2023-02-07T05:08:10.667Z,23.63
2023-02-07T05:09:10.639Z,23.53
2023-02-07T05:10:10.622Z,24.92
2023-02-07T05:11:10.613Z,24.49
2023-02-07T05:12:10.607Z,24.71
2023-02-07T05:13:10.995Z,24.17
2023-02-07T05:14:10.574Z,24.06
2023-02-07T05:15:10.570Z,24.06
2023-02-07T05:16:10.548Z,23.96
2023-02-07T05:17:10.544Z,23.85
2023-02-07T05:18:10.534Z,24.06
2023-02-07T05:19:10.517Z,25.14
2023-02-07T05:20:10.514Z,23.31
2023-02-07T05:21:10.504Z,23.53
2023-02-07T05:22:10.474Z,23.85
2023-02-07T05:23:10.494Z,24.92
2023-02-07T05:24:10.465Z,24.81
2023-02-07T05:25:10.457Z,24.81
2023-02-07T05:26:10.420Z,24.92
2023-02-07T05:27:10.415Z,24.92
2023-02-07T05:28:10.425Z,24.92
2023-02-07T05:29:10.414Z,23.53
2023-02-07T05:30:10.365Z,24.06
2023-02-07T05:31:10.461Z,23.53
2023-02-07T05:32:10.361Z,24.06
2023-02-07T05:33:10.365Z,23.63
2023-02-07T05:34:10.341Z,24.71
2023-02-07T05:35:11.318Z,24.60
2023-02-07T05:36:10.313Z,24.81
2023-02-07T05:37:10.313Z,23.96
2023-02-07T05:38:10.294Z,23.53
2023-02-07T05:39:10.296Z,23.63
2023-02-07T05:40:12.901Z,23.96
2023-02-07T05:41:26.431Z,24.71
2023-02-07T05:42:13.389Z,23.63
2023-02-07T05:43:13.909Z,24.38
2023-02-07T05:44:12.842Z,24.06
2023-02-07T05:51:08.822Z,24.60
2023-02-07T05:52:10.830Z,24.49
2023-02-07T05:53:08.785Z,24.71
2023-02-07T05:54:08.773Z,23.31
2023-02-07T05:55:08.761Z,24.60
2023-02-07T05:56:09.722Z,24.60
2023-02-07T05:57:08.744Z,24.71
2023-02-07T05:58:09.692Z,24.17
2023-02-07T05:59:09.660Z,24.81
2023-02-07T06:00:09.663Z,23.53
2023-02-07T06:01:09.647Z,23.53
2023-02-07T06:02:09.641Z,24.71
2023-02-07T06:03:08.693Z,23.63
2023-02-07T06:04:08.660Z,23.63
2023-02-07T06:05:08.638Z,23.53
2023-02-07T06:06:08.636Z,23.53
2023-02-07T06:07:08.634Z,23.96
2023-02-07T06:08:08.616Z,24.60
2023-02-07T06:09:08.605Z,24.81
2023-02-07T06:10:08.581Z,23.42
2023-02-07T06:11:08.560Z,23.53
2023-02-07T06:12:08.561Z,24.60
2023-02-07T06:13:08.544Z,23.85
2023-02-07T06:14:08.529Z,23.96
2023-02-07T06:15:08.523Z,24.06
2023-02-07T06:16:08.553Z,23.42
2023-02-07T06:17:08.507Z,22.99
2023-02-07T06:18:09.432Z,24.60
2023-02-07T06:19:08.463Z,23.31
2023-02-07T06:20:09.464Z,23.85
2023-02-07T06:21:08.444Z,23.96
2023-02-07T06:22:08.430Z,23.53
2023-02-07T06:23:09.383Z,23.53
2023-02-07T06:24:09.352Z,24.06
2023-02-07T06:25:08.412Z,23.63
2023-02-07T06:26:09.330Z,24.06
2023-02-07T06:27:09.599Z,23.42
2023-02-07T06:28:08.379Z,23.53
2023-02-07T06:29:08.342Z,23.85
2023-02-07T06:30:08.339Z,23.10
2023-02-07T06:31:08.403Z,23.42
2023-02-07T06:32:08.300Z,23.10
2023-02-07T06:33:08.308Z,23.74
2023-02-07T06:34:08.297Z,23.42
2023-02-07T06:35:08.292Z,23.42
2023-02-07T06:36:08.270Z,24.81
2023-02-07T06:37:08.241Z,23.31
2023-02-07T06:38:08.233Z,24.81
2023-02-07T06:39:08.229Z,22.99
2023-02-07T06:40:08.210Z,24.06
2023-02-07T06:41:08.197Z,24.06
2023-02-07T06:42:08.191Z,23.96
2023-02-07T06:43:09.102Z,23.53
2023-02-07T06:44:08.337Z,23.85
2023-02-07T06:45:08.147Z,24.17
2023-02-07T06:46:08.173Z,24.06
2023-02-07T06:47:08.122Z,23.74
2023-02-07T06:48:08.149Z,23.74
2023-02-07T06:49:08.237Z,24.71
2023-02-07T06:50:09.550Z,24.06
2023-02-07T06:51:08.877Z,23.74
2023-02-07T06:52:08.079Z,23.53
2023-02-07T06:53:08.086Z,23.53
2023-02-07T06:54:08.036Z,24.17
2023-02-07T06:55:08.031Z,24.17
2023-02-07T06:56:08.005Z,23.96
2023-02-07T06:57:07.994Z,23.63
2023-02-07T06:58:07.985Z,23.74
2023-02-07T06:59:08.009Z,23.53
2023-02-07T07:00:07.949Z,23.96
2023-02-07T07:01:07.949Z,23.85
2023-02-07T07:02:07.929Z,23.85
2023-02-07T07:03:07.931Z,24.71
2023-02-07T07:04:08.179Z,24.06
2023-02-07T07:05:07.899Z,24.17
2023-02-07T07:06:07.889Z,23.42
2023-02-07T07:07:07.881Z,24.28
2023-02-07T07:08:07.866Z,23.20
2023-02-07T07:09:07.865Z,23.96
2023-02-07T07:10:07.882Z,23.20
2023-02-07T07:11:07.824Z,24.06
2023-02-07T07:12:07.811Z,23.74
2023-02-07T07:13:07.801Z,23.31
2023-02-07T07:14:07.829Z,23.74
2023-02-07T07:15:08.743Z,23.10
2023-02-07T07:16:07.817Z,23.42
2023-02-07T07:17:07.748Z,23.31
2023-02-07T07:18:08.015Z,23.63
2023-02-07T07:19:07.751Z,23.20
2023-02-07T07:20:07.771Z,23.74
2023-02-07T07:21:07.723Z,24.17
2023-02-07T07:22:07.691Z,23.85
2023-02-07T07:23:07.678Z,23.53
2023-02-07T07:24:07.699Z,22.99
2023-02-07T07:25:07.653Z,23.42
2023-02-07T07:26:07.637Z,23.96
2023-02-07T07:27:07.635Z,23.42
2023-02-07T07:28:07.638Z,24.06
2023-02-07T07:29:07.622Z,23.63
2023-02-07T07:30:09.558Z,23.20
2023-02-07T07:31:07.647Z,23.74
2023-02-07T07:32:07.580Z,23.42
2023-02-07T07:33:07.559Z,23.74
2023-02-07T07:34:07.558Z,23.31
2023-02-07T07:35:08.357Z,23.20
2023-02-07T07:36:08.906Z,23.20
2023-02-07T07:37:07.504Z,23.85
2023-02-07T07:38:07.486Z,23.20
2023-02-07T07:39:07.495Z,24.17
2023-02-07T07:40:07.494Z,23.42
2023-02-07T07:41:07.474Z,23.42
2023-02-07T07:42:09.413Z,23.53
2023-02-07T07:43:07.433Z,23.63
2023-02-07T07:44:07.438Z,23.74
2023-02-07T07:45:07.402Z,23.63
2023-02-07T07:46:07.416Z,23.20
2023-02-07T07:47:07.372Z,23.85
2023-02-07T07:48:07.399Z,22.45
2023-02-07T07:49:07.365Z,23.85
2023-02-07T07:50:07.334Z,23.74
2023-02-07T07:51:09.301Z,23.31
2023-02-07T07:52:07.312Z,23.20
2023-02-07T07:53:08.253Z,23.63
2023-02-07T07:54:07.304Z,22.45
2023-02-07T07:55:07.276Z,23.20
2023-02-07T07:56:07.265Z,23.31
2023-02-07T07:57:07.252Z,24.17
2023-02-07T07:58:07.225Z,24.28
2023-02-07T07:59:12.187Z,23.53
2023-02-07T08:00:08.204Z,22.77
2023-02-07T08:01:07.296Z,23.53
2023-02-07T08:02:07.171Z,23.42
2023-02-07T08:03:07.172Z,23.53
2023-02-07T08:04:07.211Z,23.42
2023-02-07T08:05:07.157Z,23.10
2023-02-07T08:06:07.123Z,23.63
2023-02-07T08:07:07.112Z,23.74
2023-02-07T08:08:07.113Z,23.42
2023-02-07T08:09:07.399Z,23.20
2023-02-07T08:10:07.074Z,23.42
2023-02-07T08:11:07.073Z,22.45
2023-02-07T08:12:07.052Z,23.31
2023-02-07T08:13:07.050Z,23.42
2023-02-07T08:14:07.041Z,23.42
2023-02-07T08:15:07.040Z,23.96
2023-02-07T08:16:07.037Z,23.42
2023-02-07T08:17:06.994Z,23.63
2023-02-07T08:18:06.977Z,23.96
2023-02-07T08:19:06.965Z,23.10
2023-02-07T08:20:06.967Z,23.85
2023-02-07T08:21:06.944Z,23.85
2023-02-07T08:22:06.926Z,23.63
2023-02-07T08:23:06.927Z,23.74
2023-02-07T08:24:06.920Z,23.20
2023-02-07T08:25:08.433Z,23.63
2023-02-07T08:26:06.875Z,23.53
2023-02-07T08:27:06.878Z,23.96
2023-02-07T08:28:06.863Z,23.20
2023-02-07T08:29:06.877Z,23.53
2023-02-07T08:30:06.837Z,23.31
2023-02-07T08:31:07.122Z,24.06
2023-02-07T08:32:06.875Z,23.53
2023-02-07T08:33:06.826Z,22.34
2023-02-07T08:34:06.777Z,23.42
2023-02-07T08:35:06.777Z,23.85
2023-02-07T08:36:07.278Z,23.53
2023-02-07T08:37:06.750Z,23.63
2023-02-07T08:38:06.726Z,23.20
2023-02-07T08:39:06.871Z,22.24
2023-02-07T08:40:06.727Z,22.34
2023-02-07T08:41:06.691Z,23.42
2023-02-07T08:42:06.701Z,23.74
2023-02-07T08:43:06.682Z,23.74
2023-02-07T08:44:06.670Z,23.74
2023-02-07T08:45:06.755Z,23.20
2023-02-07T08:46:06.817Z,22.45
2023-02-07T08:47:06.617Z,23.31
2023-02-07T08:48:06.602Z,23.63
2023-02-07T08:49:06.577Z,22.88
2023-02-07T08:50:06.580Z,23.31
2023-02-07T08:51:06.562Z,23.20
2023-02-07T08:52:06.549Z,23.63
2023-02-07T08:53:06.540Z,22.45
2023-02-07T08:54:06.529Z,22.13
2023-02-07T08:55:06.549Z,23.63
2023-02-07T08:56:06.503Z,23.31
2023-02-07T08:57:06.488Z,24.06
2023-02-07T08:58:06.475Z,23.53
2023-02-07T08:59:06.471Z,23.96
2023-02-07T09:00:06.453Z,23.31
2023-02-07T09:01:07.483Z,23.74
2023-02-07T09:02:06.505Z,23.31
2023-02-07T09:03:07.369Z,23.42
2023-02-07T09:04:06.397Z,24.06
2023-02-07T09:05:06.391Z,23.96
2023-02-07T09:06:06.377Z,22.67
2023-02-07T09:07:06.360Z,23.63
2023-02-07T09:08:06.350Z,23.96
2023-02-07T09:09:06.341Z,24.17
2023-02-07T09:10:06.324Z,23.20
2023-02-07T09:11:09.559Z,23.53
2023-02-07T09:12:06.292Z,23.10
2023-02-07T09:13:06.301Z,22.99
2023-02-07T09:14:06.275Z,23.31
2023-02-07T09:15:06.283Z,23.31
2023-02-07T09:16:06.248Z,23.10
2023-02-07T09:17:06.235Z,23.74
2023-02-07T09:18:06.214Z,23.20
2023-02-07T09:19:07.022Z,23.20
2023-02-07T09:20:06.445Z,23.42
2023-02-07T09:21:06.191Z,23.10
2023-02-07T09:22:06.183Z,23.20
2023-02-07T09:23:06.192Z,23.31
2023-02-07T09:24:06.407Z,23.96
2023-02-07T09:25:06.141Z,23.85
2023-02-07T09:26:06.143Z,23.42
2023-02-07T09:27:06.134Z,23.20
2023-02-07T09:28:06.150Z,22.34
2023-02-07T09:29:06.105Z,23.20
2023-02-07T09:30:06.074Z,24.38
2023-02-07T09:31:06.152Z,23.53
2023-02-07T09:32:06.045Z,23.20
2023-02-07T09:33:06.031Z,23.85
2023-02-07T09:34:06.025Z,23.31
2023-02-07T09:35:06.005Z,23.42
2023-02-07T09:36:06.240Z,23.53
2023-02-07T09:37:07.976Z,23.31
2023-02-07T09:38:05.958Z,23.31
2023-02-07T09:39:05.954Z,23.85
2023-02-07T09:40:05.957Z,23.42
2023-02-07T09:41:05.935Z,23.85
2023-02-07T09:42:06.205Z,23.10
2023-02-07T09:43:06.011Z,23.42
2023-02-07T09:44:06.026Z,23.53
2023-02-07T09:45:06.004Z,23.42
2023-02-07T09:46:05.892Z,24.28
2023-02-07T09:47:05.860Z,23.42
2023-02-07T09:48:05.857Z,23.74
2023-02-07T09:49:05.839Z,24.06
2023-02-07T09:50:05.815Z,23.20
2023-02-07T09:51:06.873Z,23.20
2023-02-07T09:52:07.766Z,23.74
2023-02-07T09:53:05.850Z,23.63
2023-02-07T09:54:05.778Z,23.85
2023-02-07T09:55:05.778Z,23.20
2023-02-07T09:56:06.705Z,23.85
2023-02-07T09:57:05.746Z,23.31
2023-02-07T09:58:05.988Z,23.63
2023-02-07T09:59:05.697Z,23.42
2023-02-07T10:00:05.678Z,23.10
2023-02-07T10:01:05.703Z,23.74
2023-02-07T10:02:05.661Z,24.17
2023-02-07T10:03:05.687Z,23.63
2023-02-07T10:04:05.658Z,23.63
2023-02-07T10:05:05.620Z,23.63
2023-02-07T10:06:17.539Z,23.42
2023-02-07T10:07:06.588Z,23.63
2023-02-07T10:08:05.579Z,23.85
2023-02-07T10:09:05.567Z,23.42
2023-02-07T10:10:05.566Z,23.42
2023-02-07T10:11:06.001Z,23.96
2023-02-07T10:12:05.547Z,23.31
2023-02-07T10:13:07.439Z,23.42
2023-02-07T10:14:05.496Z,23.85
2023-02-07T10:15:05.491Z,23.42
2023-02-07T10:16:05.564Z,23.53
2023-02-07T10:17:05.487Z,23.20
2023-02-07T10:18:05.445Z,23.20
2023-02-07T10:19:05.436Z,23.74
2023-02-07T10:20:05.447Z,24.06
2023-02-07T10:21:06.621Z,24.81
2023-02-07T10:22:06.376Z,23.63
2023-02-07T10:23:05.386Z,23.63
2023-02-07T10:24:05.375Z,23.53
2023-02-07T10:25:05.367Z,22.99
2023-02-07T10:26:05.390Z,24.17
2023-02-07T10:27:05.373Z,23.74
2023-02-07T10:28:05.385Z,23.10
2023-02-07T10:29:05.315Z,23.85
2023-02-07T10:30:05.298Z,24.06
2023-02-07T10:31:05.403Z,23.31
2023-02-07T10:32:05.271Z,23.42
2023-02-07T10:33:05.257Z,23.74
2023-02-07T10:34:05.248Z,23.85
2023-02-07T10:35:05.229Z,24.71
2023-02-07T10:36:05.229Z,23.53
2023-02-07T10:37:05.212Z,23.63
2023-02-07T10:38:05.201Z,23.85
2023-02-07T10:39:09.477Z,23.63
2023-02-07T10:40:05.184Z,24.49
2023-02-07T10:41:06.160Z,23.74
2023-02-07T10:42:05.149Z,23.31
2023-02-07T10:43:05.380Z,24.06
2023-02-07T10:44:05.132Z,24.60
2023-02-07T10:45:05.122Z,23.74
2023-02-07T10:46:06.752Z,23.42
2023-02-07T10:47:05.091Z,23.53
2023-02-07T10:48:06.032Z,24.06
2023-02-07T10:49:05.063Z,23.85
2023-02-07T10:50:05.051Z,24.71
2023-02-07T10:51:05.052Z,23.63
2023-02-07T10:52:05.033Z,23.63
2023-02-07T10:53:05.012Z,24.81
2023-02-07T10:54:05.007Z,24.71
2023-02-07T10:55:04.986Z,23.96
2023-02-07T10:56:04.992Z,24.06
2023-02-07T10:57:04.960Z,24.06
2023-02-07T10:58:17.729Z,25.14
2023-02-07T10:59:05.944Z,24.17
2023-02-07T11:00:04.929Z,24.81
2023-02-07T11:01:04.960Z,24.81
2023-02-07T11:02:04.945Z,24.06
2023-02-07T11:03:04.906Z,25.03
2023-02-07T11:04:04.892Z,24.81
2023-02-07T11:05:04.860Z,24.92
2023-02-07T11:06:06.873Z,24.06
2023-02-07T11:07:04.865Z,23.96
2023-02-07T11:08:04.834Z,23.96
2023-02-07T11:09:04.814Z,24.71
2023-02-07T11:10:04.815Z,24.60
2023-02-07T11:11:04.816Z,24.71
2023-02-07T11:12:04.825Z,25.35
2023-02-07T11:13:04.758Z,25.03
2023-02-07T11:14:04.764Z,24.60
2023-02-07T11:15:04.737Z,24.60
2023-02-07T11:16:04.839Z,23.96
2023-02-07T11:17:04.724Z,25.03
2023-02-07T11:18:04.723Z,25.35
2023-02-07T11:19:04.699Z,24.81
2023-02-07T11:20:04.685Z,25.14
2023-02-07T11:21:04.666Z,24.06
2023-02-07T11:22:04.659Z,25.14
2023-02-07T11:23:04.635Z,24.92
2023-02-07T11:24:04.632Z,24.71
2023-02-07T11:25:04.617Z,24.06
2023-02-07T11:26:04.606Z,24.81
2023-02-07T11:27:04.608Z,24.81
2023-02-07T11:28:04.627Z,24.06
2023-02-07T11:29:05.732Z,23.96
2023-02-07T11:30:04.557Z,24.92
2023-02-07T11:31:05.597Z,23.96
2023-02-07T11:32:04.559Z,24.17
2023-02-07T11:33:04.524Z,24.06
2023-02-07T11:34:05.481Z,24.81
2023-02-07T11:35:04.501Z,24.81
2023-02-07T11:36:05.459Z,24.17
2023-02-07T11:37:04.468Z,24.17
2023-02-07T11:38:04.877Z,24.28
2023-02-07T11:39:04.440Z,24.17
2023-02-07T11:40:04.425Z,25.24
2023-02-07T11:41:04.419Z,25.14
2023-02-07T11:42:04.411Z,24.06
2023-02-07T11:43:04.381Z,24.92
2023-02-07T11:44:04.381Z,25.24
2023-02-07T11:45:04.384Z,24.17
2023-02-07T11:46:04.374Z,24.49
2023-02-07T11:47:04.361Z,24.92
2023-02-07T11:48:04.328Z,24.17
2023-02-07T11:49:04.369Z,24.92
2023-02-07T11:50:04.337Z,25.35
2023-02-07T11:51:04.330Z,24.60
2023-02-07T11:52:04.340Z,25.24
2023-02-07T11:53:04.274Z,25.03
2023-02-07T11:54:04.272Z,23.85
2023-02-07T11:55:04.235Z,24.60
2023-02-07T11:56:04.252Z,25.14
2023-02-07T11:57:04.333Z,24.28
2023-02-07T11:58:04.225Z,24.71
2023-02-07T11:59:04.216Z,24.92
2023-02-07T12:00:04.192Z,25.35
2023-02-07T12:01:04.186Z,25.14
2023-02-07T12:02:04.241Z,26.00
2023-02-07T12:03:04.148Z,24.60
2023-02-07T12:04:04.139Z,24.06
2023-02-07T12:05:04.124Z,24.60
2023-02-07T12:06:04.127Z,24.71
2023-02-07T12:07:04.114Z,24.92
2023-02-07T12:08:04.108Z,23.85
2023-02-07T12:09:04.071Z,25.03
2023-02-07T12:10:04.152Z,25.14
2023-02-07T12:11:04.051Z,24.71
2023-02-07T12:12:04.283Z,26.10
2023-02-07T12:13:04.048Z,25.03
2023-02-07T12:14:04.217Z,25.14
2023-02-07T12:15:04.235Z,25.03
2023-02-07T12:16:06.042Z,24.92
2023-02-07T12:17:04.005Z,24.60
2023-02-07T12:18:03.966Z,25.03
2023-02-07T12:19:03.947Z,25.14
2023-02-07T12:20:04.880Z,23.74
2023-02-07T12:21:03.919Z,25.14
2023-02-07T12:22:03.914Z,25.24
2023-02-07T12:23:27.971Z,23.85
2023-02-07T12:24:04.903Z,23.85
2023-02-07T12:25:03.874Z,24.81
2023-02-07T12:26:03.861Z,25.89
2023-02-07T12:27:03.849Z,24.71
2023-02-07T12:28:03.903Z,24.60
2023-02-07T12:29:12.802Z,24.60
2023-02-07T12:30:04.809Z,23.96
2023-02-07T12:31:06.172Z,25.14
2023-02-07T12:32:03.970Z,25.24
2023-02-07T12:33:03.787Z,23.74
2023-02-07T12:34:03.765Z,24.81
2023-02-07T12:35:03.760Z,24.81
2023-02-07T12:36:04.010Z,23.96
2023-02-07T12:37:05.310Z,24.71
2023-02-07T12:38:03.714Z,23.63
2023-02-07T12:39:04.554Z,24.71
2023-02-07T12:40:03.690Z,24.06
2023-02-07T12:41:03.678Z,24.60
2023-02-07T12:42:03.665Z,24.81
2023-02-07T12:43:03.682Z,24.71
2023-02-07T12:44:06.206Z,23.96
2023-02-07T12:45:03.658Z,24.81
2023-02-07T12:46:03.676Z,24.60
2023-02-07T12:47:04.568Z,23.63
2023-02-07T12:48:03.606Z,24.81
2023-02-07T12:49:05.056Z,23.85
2023-02-07T12:50:03.575Z,24.92
2023-02-07T12:51:04.506Z,25.14
2023-02-07T12:52:03.928Z,24.92
2023-02-07T12:53:03.538Z,25.03
2023-02-07T12:54:03.540Z,24.71
2023-02-07T12:55:03.500Z,24.60
2023-02-07T12:56:03.503Z,24.81
2023-02-07T12:57:03.473Z,24.92
2023-02-07T12:58:03.474Z,25.24